Terminal Aerodrome Forecast
Issued by NWS

Home | Current Version | Previous Version | Text Only | Print | Product List | Glossary On
Versions: 1 2 3 4 5 6 7 8 9 10 11 12 13 14 15 16 17 18 19 20
000
FTUS43 KDTX 192003 AAA
TAFYIP
TAF AMD
KYIP 192003Z 1920/2018 10005KT P6SM BKN018 OVC040
     FM192100 12005KT P6SM BKN022 OVC050
     FM200000 16004KT 4SM BR BKN015 OVC050
      TEMPO 2000/2003 3SM -SHRA BR BKN010 OVC035
     FM201400 17006KT P6SM BKN028 OVC100=

USA.gov is the U.S. government's official web portal to all federal, state and local government web resources and services.